sensor_id;sensor_type;location;lat;lon;timestamp;P1;durP1;ratioP1;P2;durP2;ratioP2
6131;SDS011;3097;42.692;23.278;2024-02-21T00:00:14;10.40;;;7.83;;
6131;SDS011;3097;42.692;23.278;2024-02-21T00:02:40;7.60;;;6.60;;
6131;SDS011;3097;42.692;23.278;2024-02-21T00:05:06;8.57;;;7.00;;
6131;SDS011;3097;42.692;23.278;2024-02-21T00:07:32;8.83;;;7.00;;
6131;SDS011;3097;42.692;23.278;2024-02-21T00:09:57;8.30;;;7.00;;
6131;SDS011;3097;42.692;23.278;2024-02-21T00:12:23;6.57;;;5.93;;
6131;SDS011;3097;42.692;23.278;2024-02-21T00:14:48;8.80;;;6.90;;
6131;SDS011;3097;42.692;23.278;2024-02-21T00:17:14;7.77;;;6.67;;
6131;SDS011;3097;42.692;23.278;2024-02-21T00:19:39;8.37;;;6.70;;
6131;SDS011;3097;42.692;23.278;2024-02-21T00:22:05;8.97;;;7.20;;
6131;SDS011;3097;42.692;23.278;2024-02-21T00:24:30;10.47;;;7.03;;
6131;SDS011;3097;42.692;23.278;2024-02-21T00:26:56;11.10;;;7.77;;
6131;SDS011;3097;42.692;23.278;2024-02-21T00:29:22;8.43;;;7.30;;
6131;SDS011;3097;42.692;23.278;2024-02-21T00:31:48;10.90;;;7.70;;
6131;SDS011;3097;42.692;23.278;2024-02-21T00:34:14;7.17;;;6.47;;
6131;SDS011;3097;42.692;23.278;2024-02-21T00:36:40;8.07;;;6.30;;
6131;SDS011;3097;42.692;23.278;2024-02-21T00:39:05;7.57;;;6.80;;
6131;SDS011;3097;42.692;23.278;2024-02-21T00:41:31;7.80;;;7.00;;
6131;SDS011;3097;42.692;23.278;2024-02-21T00:43:57;7.83;;;6.53;;
6131;SDS011;3097;42.692;23.278;2024-02-21T00:46:22;8.70;;;7.37;;
6131;SDS011;3097;42.692;23.278;2024-02-21T00:48:48;7.13;;;5.73;;
6131;SDS011;3097;42.692;23.278;2024-02-21T00:51:15;7.03;;;6.10;;
6131;SDS011;3097;42.692;23.278;2024-02-21T00:53:41;6.60;;;5.90;;
6131;SDS011;3097;42.692;23.278;2024-02-21T00:56:07;6.70;;;5.63;;
6131;SDS011;3097;42.692;23.278;2024-02-21T00:58:33;6.33;;;5.50;;
6131;SDS011;3097;42.692;23.278;2024-02-21T01:00:59;6.53;;;5.53;;
6131;SDS011;3097;42.692;23.278;2024-02-21T01:03:25;10.93;;;7.47;;
6131;SDS011;3097;42.692;23.278;2024-02-21T01:05:51;8.50;;;6.67;;
6131;SDS011;3097;42.692;23.278;2024-02-21T01:08:16;9.50;;;6.90;;
6131;SDS011;3097;42.692;23.278;2024-02-21T01:10:42;12.57;;;7.87;;
6131;SDS011;3097;42.692;23.278;2024-02-21T01:13:08;8.73;;;7.13;;
6131;SDS011;3097;42.692;23.278;2024-02-21T01:15:34;7.00;;;6.27;;
6131;SDS011;3097;42.692;23.278;2024-02-21T01:17:59;8.97;;;6.67;;
6131;SDS011;3097;42.692;23.278;2024-02-21T01:20:25;9.10;;;6.37;;
6131;SDS011;3097;42.692;23.278;2024-02-21T01:22:50;8.53;;;6.43;;
6131;SDS011;3097;42.692;23.278;2024-02-21T01:25:16;9.83;;;6.80;;
6131;SDS011;3097;42.692;23.278;2024-02-21T01:27:41;9.10;;;7.03;;
6131;SDS011;3097;42.692;23.278;2024-02-21T01:30:07;7.93;;;6.70;;
6131;SDS011;3097;42.692;23.278;2024-02-21T01:32:33;7.67;;;6.97;;
6131;SDS011;3097;42.692;23.278;2024-02-21T01:34:59;8.83;;;7.33;;
6131;SDS011;3097;42.692;23.278;2024-02-21T01:37:24;10.53;;;7.87;;
6131;SDS011;3097;42.692;23.278;2024-02-21T01:39:50;8.80;;;7.50;;
6131;SDS011;3097;42.692;23.278;2024-02-21T01:42:15;7.37;;;6.57;;
6131;SDS011;3097;42.692;23.278;2024-02-21T01:44:41;8.27;;;7.17;;
6131;SDS011;3097;42.692;23.278;2024-02-21T01:47:07;8.23;;;7.33;;
6131;SDS011;3097;42.692;23.278;2024-02-21T01:49:33;9.27;;;7.50;;
6131;SDS011;3097;42.692;23.278;2024-02-21T01:51:59;9.20;;;7.50;;
6131;SDS011;3097;42.692;23.278;2024-02-21T01:54:25;10.93;;;8.63;;
6131;SDS011;3097;42.692;23.278;2024-02-21T01:56:53;9.47;;;7.60;;
6131;SDS011;3097;42.692;23.278;2024-02-21T01:59:19;14.57;;;8.70;;
6131;SDS011;3097;42.692;23.278;2024-02-21T02:01:46;12.87;;;7.90;;
6131;SDS011;3097;42.692;23.278;2024-02-21T02:04:12;10.20;;;6.67;;
6131;SDS011;3097;42.692;23.278;2024-02-21T02:06:39;8.47;;;6.97;;
6131;SDS011;3097;42.692;23.278;2024-02-21T02:09:06;7.90;;;6.90;;
6131;SDS011;3097;42.692;23.278;2024-02-21T02:11:32;8.57;;;6.80;;
6131;SDS011;3097;42.692;23.278;2024-02-21T02:13:58;9.07;;;7.70;;
6131;SDS011;3097;42.692;23.278;2024-02-21T02:16:23;9.80;;;7.37;;
6131;SDS011;3097;42.692;23.278;2024-02-21T02:18:49;9.70;;;8.10;;
6131;SDS011;3097;42.692;23.278;2024-02-21T02:21:37;12.57;;;8.67;;
6131;SDS011;3097;42.692;23.278;2024-02-21T02:24:04;8.97;;;6.70;;
6131;SDS011;3097;42.692;23.278;2024-02-21T02:26:30;8.77;;;7.87;;
6131;SDS011;3097;42.692;23.278;2024-02-21T02:28:55;12.37;;;8.57;;
6131;SDS011;3097;42.692;23.278;2024-02-21T02:31:21;10.70;;;8.70;;
6131;SDS011;3097;42.692;23.278;2024-02-21T02:33:48;13.17;;;9.03;;
6131;SDS011;3097;42.692;23.278;2024-02-21T02:36:14;12.87;;;9.30;;
6131;SDS011;3097;42.692;23.278;2024-02-21T02:38:39;12.10;;;8.83;;
6131;SDS011;3097;42.692;23.278;2024-02-21T02:41:05;11.60;;;9.03;;
6131;SDS011;3097;42.692;23.278;2024-02-21T02:43:30;12.40;;;9.07;;
6131;SDS011;3097;42.692;23.278;2024-02-21T02:45:56;12.57;;;9.53;;
6131;SDS011;3097;42.692;23.278;2024-02-21T02:48:22;13.70;;;9.60;;
6131;SDS011;3097;42.692;23.278;2024-02-21T02:50:47;12.00;;;8.50;;
6131;SDS011;3097;42.692;23.278;2024-02-21T02:53:14;11.07;;;8.53;;
6131;SDS011;3097;42.692;23.278;2024-02-21T02:55:40;9.50;;;8.20;;
6131;SDS011;3097;42.692;23.278;2024-02-21T02:58:06;11.43;;;8.70;;
6131;SDS011;3097;42.692;23.278;2024-02-21T03:00:31;9.97;;;7.83;;
6131;SDS011;3097;42.692;23.278;2024-02-21T03:03:01;10.40;;;7.27;;
6131;SDS011;3097;42.692;23.278;2024-02-21T03:05:28;10.83;;;7.93;;
6131;SDS011;3097;42.692;23.278;2024-02-21T03:07:54;10.83;;;8.03;;
6131;SDS011;3097;42.692;23.278;2024-02-21T03:10:20;10.80;;;8.80;;
6131;SDS011;3097;42.692;23.278;2024-02-21T03:12:46;11.20;;;8.30;;
6131;SDS011;3097;42.692;23.278;2024-02-21T03:15:12;12.90;;;8.93;;
6131;SDS011;3097;42.692;23.278;2024-02-21T03:17:38;13.00;;;8.70;;
6131;SDS011;3097;42.692;23.278;2024-02-21T03:20:04;11.87;;;9.00;;
6131;SDS011;3097;42.692;23.278;2024-02-21T03:22:31;16.27;;;9.27;;
6131;SDS011;3097;42.692;23.278;2024-02-21T03:24:57;13.90;;;9.93;;
6131;SDS011;3097;42.692;23.278;2024-02-21T03:27:23;13.70;;;9.80;;
6131;SDS011;3097;42.692;23.278;2024-02-21T03:29:48;10.97;;;8.23;;
6131;SDS011;3097;42.692;23.278;2024-02-21T03:32:14;14.10;;;9.20;;
6131;SDS011;3097;42.692;23.278;2024-02-21T03:34:39;13.87;;;9.60;;
6131;SDS011;3097;42.692;23.278;2024-02-21T03:37:05;13.17;;;9.63;;
6131;SDS011;3097;42.692;23.278;2024-02-21T03:39:31;12.60;;;9.63;;
6131;SDS011;3097;42.692;23.278;2024-02-21T03:42:00;19.03;;;12.63;;
6131;SDS011;3097;42.692;23.278;2024-02-21T03:44:30;27.97;;;18.77;;
6131;SDS011;3097;42.692;23.278;2024-02-21T03:46:56;33.40;;;21.27;;
6131;SDS011;3097;42.692;23.278;2024-02-21T03:49:22;28.47;;;18.20;;
6131;SDS011;3097;42.692;23.278;2024-02-21T03:51:48;20.40;;;13.33;;
6131;SDS011;3097;42.692;23.278;2024-02-21T03:54:13;15.63;;;10.83;;
6131;SDS011;3097;42.692;23.278;2024-02-21T03:56:39;18.10;;;11.23;;
6131;SDS011;3097;42.692;23.278;2024-02-21T03:59:05;16.40;;;11.43;;
6131;SDS011;3097;42.692;23.278;2024-02-21T04:01:32;14.73;;;10.33;;
6131;SDS011;3097;42.692;23.278;2024-02-21T04:03:57;19.17;;;11.30;;
6131;SDS011;3097;42.692;23.278;2024-02-21T04:06:23;27.60;;;13.57;;
6131;SDS011;3097;42.692;23.278;2024-02-21T04:08:48;21.50;;;12.70;;
6131;SDS011;3097;42.692;23.278;2024-02-21T04:11:14;23.33;;;12.37;;
6131;SDS011;3097;42.692;23.278;2024-02-21T04:13:39;24.57;;;13.90;;
6131;SDS011;3097;42.692;23.278;2024-02-21T04:16:05;33.23;;;17.57;;
6131;SDS011;3097;42.692;23.278;2024-02-21T04:18:31;37.63;;;18.77;;
6131;SDS011;3097;42.692;23.278;2024-02-21T04:20:56;41.00;;;23.10;;
6131;SDS011;3097;42.692;23.278;2024-02-21T04:23:22;35.63;;;20.10;;
6131;SDS011;3097;42.692;23.278;2024-02-21T04:25:47;25.23;;;15.70;;
6131;SDS011;3097;42.692;23.278;2024-02-21T04:28:13;22.87;;;14.37;;
6131;SDS011;3097;42.692;23.278;2024-02-21T04:30:38;20.60;;;13.57;;
6131;SDS011;3097;42.692;23.278;2024-02-21T04:33:04;18.93;;;13.03;;
6131;SDS011;3097;42.692;23.278;2024-02-21T04:35:29;20.73;;;12.90;;
6131;SDS011;3097;42.692;23.278;2024-02-21T04:37:55;26.43;;;13.20;;
6131;SDS011;3097;42.692;23.278;2024-02-21T04:40:20;18.73;;;13.07;;
6131;SDS011;3097;42.692;23.278;2024-02-21T04:42:46;21.60;;;13.80;;
6131;SDS011;3097;42.692;23.278;2024-02-21T04:45:11;22.10;;;14.13;;
6131;SDS011;3097;42.692;23.278;2024-02-21T04:47:37;24.07;;;14.87;;
6131;SDS011;3097;42.692;23.278;2024-02-21T04:50:02;31.10;;;16.70;;
6131;SDS011;3097;42.692;23.278;2024-02-21T04:52:28;32.90;;;18.03;;
6131;SDS011;3097;42.692;23.278;2024-02-21T04:54:54;24.10;;;14.10;;
6131;SDS011;3097;42.692;23.278;2024-02-21T04:57:20;28.77;;;15.20;;
6131;SDS011;3097;42.692;23.278;2024-02-21T04:59:46;31.17;;;17.43;;
6131;SDS011;3097;42.692;23.278;2024-02-21T05:02:13;32.73;;;18.30;;
6131;SDS011;3097;42.692;23.278;2024-02-21T05:04:39;31.37;;;17.70;;
6131;SDS011;3097;42.692;23.278;2024-02-21T05:07:06;30.87;;;17.70;;
6131;SDS011;3097;42.692;23.278;2024-02-21T05:09:32;30.03;;;17.93;;
6131;SDS011;3097;42.692;23.278;2024-02-21T05:11:57;34.77;;;19.43;;
6131;SDS011;3097;42.692;23.278;2024-02-21T05:14:26;34.33;;;19.57;;
6131;SDS011;3097;42.692;23.278;2024-02-21T05:16:54;33.67;;;20.03;;
6131;SDS011;3097;42.692;23.278;2024-02-21T05:19:20;40.03;;;22.77;;
6131;SDS011;3097;42.692;23.278;2024-02-21T05:21:46;38.10;;;23.17;;
6131;SDS011;3097;42.692;23.278;2024-02-21T05:24:11;32.97;;;19.47;;
6131;SDS011;3097;42.692;23.278;2024-02-21T05:26:37;29.60;;;18.43;;
6131;SDS011;3097;42.692;23.278;2024-02-21T05:29:03;26.20;;;16.67;;
6131;SDS011;3097;42.692;23.278;2024-02-21T05:32:14;24.23;;;15.10;;
6131;SDS011;3097;42.692;23.278;2024-02-21T05:34:17;28.00;;;15.70;;
6131;SDS011;3097;42.692;23.278;2024-02-21T05:36:43;25.30;;;15.70;;
6131;SDS011;3097;42.692;23.278;2024-02-21T05:39:09;23.83;;;14.33;;
6131;SDS011;3097;42.692;23.278;2024-02-21T05:41:35;21.43;;;13.67;;
6131;SDS011;3097;42.692;23.278;2024-02-21T05:44:00;21.33;;;13.10;;
6131;SDS011;3097;42.692;23.278;2024-02-21T05:46:26;26.50;;;15.67;;
6131;SDS011;3097;42.692;23.278;2024-02-21T05:48:51;22.23;;;14.20;;
6131;SDS011;3097;42.692;23.278;2024-02-21T05:51:17;24.00;;;14.80;;
6131;SDS011;3097;42.692;23.278;2024-02-21T05:53:42;28.43;;;17.23;;
6131;SDS011;3097;42.692;23.278;2024-02-21T05:56:11;46.43;;;26.00;;
6131;SDS011;3097;42.692;23.278;2024-02-21T05:58:37;102.67;;;45.73;;
6131;SDS011;3097;42.692;23.278;2024-02-21T06:01:03;118.77;;;57.83;;
6131;SDS011;3097;42.692;23.278;2024-02-21T06:03:29;83.37;;;41.50;;
6131;SDS011;3097;42.692;23.278;2024-02-21T06:05:55;53.70;;;27.43;;
6131;SDS011;3097;42.692;23.278;2024-02-21T06:08:20;44.80;;;24.73;;
6131;SDS011;3097;42.692;23.278;2024-02-21T06:10:46;39.63;;;22.20;;
6131;SDS011;3097;42.692;23.278;2024-02-21T06:13:12;34.80;;;20.37;;
6131;SDS011;3097;42.692;23.278;2024-02-21T06:15:37;29.53;;;17.93;;
6131;SDS011;3097;42.692;23.278;2024-02-21T06:18:03;26.50;;;15.30;;
6131;SDS011;3097;42.692;23.278;2024-02-21T06:20:29;24.63;;;15.20;;
6131;SDS011;3097;42.692;23.278;2024-02-21T06:22:54;22.60;;;14.50;;
6131;SDS011;3097;42.692;23.278;2024-02-21T06:25:20;21.67;;;14.63;;
6131;SDS011;3097;42.692;23.278;2024-02-21T06:27:45;22.60;;;14.63;;
6131;SDS011;3097;42.692;23.278;2024-02-21T06:30:11;24.97;;;16.00;;
6131;SDS011;3097;42.692;23.278;2024-02-21T06:32:37;26.07;;;16.27;;
6131;SDS011;3097;42.692;23.278;2024-02-21T06:35:03;28.43;;;17.97;;
6131;SDS011;3097;42.692;23.278;2024-02-21T06:37:29;29.00;;;16.27;;
6131;SDS011;3097;42.692;23.278;2024-02-21T06:39:57;25.80;;;16.40;;
6131;SDS011;3097;42.692;23.278;2024-02-21T06:42:24;25.53;;;15.40;;
6131;SDS011;3097;42.692;23.278;2024-02-21T06:44:50;27.20;;;15.70;;
6131;SDS011;3097;42.692;23.278;2024-02-21T06:47:15;20.37;;;14.00;;
6131;SDS011;3097;42.692;23.278;2024-02-21T06:49:41;21.80;;;13.43;;
6131;SDS011;3097;42.692;23.278;2024-02-21T06:52:07;21.40;;;13.30;;
6131;SDS011;3097;42.692;23.278;2024-02-21T06:54:32;18.37;;;12.37;;
6131;SDS011;3097;42.692;23.278;2024-02-21T06:56:58;17.93;;;12.63;;
6131;SDS011;3097;42.692;23.278;2024-02-21T06:59:24;19.63;;;12.63;;
6131;SDS011;3097;42.692;23.278;2024-02-21T07:01:51;20.97;;;13.67;;
6131;SDS011;3097;42.692;23.278;2024-02-21T07:04:18;20.60;;;13.13;;
6131;SDS011;3097;42.692;23.278;2024-02-21T07:06:43;20.03;;;13.97;;
6131;SDS011;3097;42.692;23.278;2024-02-21T07:09:09;19.90;;;13.13;;
6131;SDS011;3097;42.692;23.278;2024-02-21T07:11:34;24.23;;;15.03;;
6131;SDS011;3097;42.692;23.278;2024-02-21T07:14:00;18.50;;;12.27;;
6131;SDS011;3097;42.692;23.278;2024-02-21T07:16:25;20.17;;;13.60;;
6131;SDS011;3097;42.692;23.278;2024-02-21T07:18:51;19.73;;;12.43;;
6131;SDS011;3097;42.692;23.278;2024-02-21T07:21:17;19.73;;;12.60;;
6131;SDS011;3097;42.692;23.278;2024-02-21T07:23:42;22.03;;;12.80;;
6131;SDS011;3097;42.692;23.278;2024-02-21T07:26:08;19.90;;;13.03;;
6131;SDS011;3097;42.692;23.278;2024-02-21T07:28:34;20.80;;;13.17;;
6131;SDS011;3097;42.692;23.278;2024-02-21T07:30:59;21.43;;;12.47;;
6131;SDS011;3097;42.692;23.278;2024-02-21T07:33:25;21.70;;;11.87;;
6131;SDS011;3097;42.692;23.278;2024-02-21T07:35:51;18.23;;;11.57;;
6131;SDS011;3097;42.692;23.278;2024-02-21T07:38:16;16.23;;;11.27;;
6131;SDS011;3097;42.692;23.278;2024-02-21T07:40:46;49.63;;;25.07;;
6131;SDS011;3097;42.692;23.278;2024-02-21T07:43:11;20.10;;;13.07;;
6131;SDS011;3097;42.692;23.278;2024-02-21T07:45:37;17.07;;;11.50;;
6131;SDS011;3097;42.692;23.278;2024-02-21T07:48:04;19.63;;;12.47;;
6131;SDS011;3097;42.692;23.278;2024-02-21T07:50:30;19.00;;;12.17;;
6131;SDS011;3097;42.692;23.278;2024-02-21T07:52:56;17.00;;;11.70;;
6131;SDS011;3097;42.692;23.278;2024-02-21T07:55:21;16.60;;;10.60;;
6131;SDS011;3097;42.692;23.278;2024-02-21T07:57:47;18.87;;;12.00;;
6131;SDS011;3097;42.692;23.278;2024-02-21T08:00:12;19.80;;;13.03;;
6131;SDS011;3097;42.692;23.278;2024-02-21T08:02:45;18.20;;;12.37;;
6131;SDS011;3097;42.692;23.278;2024-02-21T08:05:11;17.60;;;11.43;;
6131;SDS011;3097;42.692;23.278;2024-02-21T08:07:37;17.47;;;11.90;;
6131;SDS011;3097;42.692;23.278;2024-02-21T08:10:03;18.77;;;11.70;;
6131;SDS011;3097;42.692;23.278;2024-02-21T08:12:29;16.23;;;11.60;;
6131;SDS011;3097;42.692;23.278;2024-02-21T08:14:55;19.97;;;12.30;;
6131;SDS011;3097;42.692;23.278;2024-02-21T08:17:20;17.90;;;12.03;;
6131;SDS011;3097;42.692;23.278;2024-02-21T08:19:46;18.67;;;12.20;;
6131;SDS011;3097;42.692;23.278;2024-02-21T08:22:14;20.27;;;12.33;;
6131;SDS011;3097;42.692;23.278;2024-02-21T08:24:39;16.43;;;12.03;;
6131;SDS011;3097;42.692;23.278;2024-02-21T08:27:05;18.43;;;12.67;;
6131;SDS011;3097;42.692;23.278;2024-02-21T08:29:31;21.40;;;13.17;;
6131;SDS011;3097;42.692;23.278;2024-02-21T08:31:56;17.67;;;10.97;;
6131;SDS011;3097;42.692;23.278;2024-02-21T08:34:22;13.73;;;10.17;;
6131;SDS011;3097;42.692;23.278;2024-02-21T08:36:47;16.97;;;11.60;;
6131;SDS011;3097;42.692;23.278;2024-02-21T08:39:13;14.77;;;11.30;;
6131;SDS011;3097;42.692;23.278;2024-02-21T08:41:41;16.17;;;11.77;;
6131;SDS011;3097;42.692;23.278;2024-02-21T08:44:07;13.57;;;11.03;;
6131;SDS011;3097;42.692;23.278;2024-02-21T08:46:33;15.13;;;11.23;;
6131;SDS011;3097;42.692;23.278;2024-02-21T08:48:59;16.33;;;11.33;;
6131;SDS011;3097;42.692;23.278;2024-02-21T08:51:24;19.03;;;12.67;;
6131;SDS011;3097;42.692;23.278;2024-02-21T08:53:50;20.33;;;11.13;;
6131;SDS011;3097;42.692;23.278;2024-02-21T08:56:16;17.13;;;12.20;;
6131;SDS011;3097;42.692;23.278;2024-02-21T08:58:42;18.73;;;12.80;;
6131;SDS011;3097;42.692;23.278;2024-02-21T09:01:08;19.47;;;14.23;;
6131;SDS011;3097;42.692;23.278;2024-02-21T09:03:37;37.07;;;20.63;;
6131;SDS011;3097;42.692;23.278;2024-02-21T09:06:03;18.23;;;13.00;;
6131;SDS011;3097;42.692;23.278;2024-02-21T09:08:30;18.17;;;12.87;;
6131;SDS011;3097;42.692;23.278;2024-02-21T09:10:55;18.40;;;11.87;;
6131;SDS011;3097;42.692;23.278;2024-02-21T09:13:21;118.20;;;17.87;;
6131;SDS011;3097;42.692;23.278;2024-02-21T09:15:49;25.07;;;14.13;;
6131;SDS011;3097;42.692;23.278;2024-02-21T09:18:15;298.20;;;29.13;;
6131;SDS011;3097;42.692;23.278;2024-02-21T09:20:42;188.80;;;22.37;;
6131;SDS011;3097;42.692;23.278;2024-02-21T09:23:08;42.50;;;14.63;;
6131;SDS011;3097;42.692;23.278;2024-02-21T09:25:34;24.90;;;14.97;;
6131;SDS011;3097;42.692;23.278;2024-02-21T09:28:00;21.73;;;13.10;;
6131;SDS011;3097;42.692;23.278;2024-02-21T09:30:27;19.17;;;12.77;;
6131;SDS011;3097;42.692;23.278;2024-02-21T09:32:52;20.07;;;13.30;;
6131;SDS011;3097;42.692;23.278;2024-02-21T09:35:18;24.27;;;14.13;;
6131;SDS011;3097;42.692;23.278;2024-02-21T09:37:44;17.87;;;10.90;;
6131;SDS011;3097;42.692;23.278;2024-02-21T09:40:10;20.27;;;12.43;;
6131;SDS011;3097;42.692;23.278;2024-02-21T09:42:39;18.27;;;12.50;;
6131;SDS011;3097;42.692;23.278;2024-02-21T09:45:19;15.57;;;11.37;;
6131;SDS011;3097;42.692;23.278;2024-02-21T09:50:44;31.73;;;17.97;;
6131;SDS011;3097;42.692;23.278;2024-02-21T09:53:12;28.80;;;18.73;;
6131;SDS011;3097;42.692;23.278;2024-02-21T09:55:41;24.20;;;16.13;;
6131;SDS011;3097;42.692;23.278;2024-02-21T09:58:08;26.80;;;15.67;;
6131;SDS011;3097;42.692;23.278;2024-02-21T10:00:37;17.53;;;12.37;;
6131;SDS011;3097;42.692;23.278;2024-02-21T10:03:03;14.77;;;10.87;;
6131;SDS011;3097;42.692;23.278;2024-02-21T10:05:36;22.87;;;14.90;;
6131;SDS011;3097;42.692;23.278;2024-02-21T10:08:03;14.63;;;11.30;;
6131;SDS011;3097;42.692;23.278;2024-02-21T10:10:29;15.87;;;11.30;;
6131;SDS011;3097;42.692;23.278;2024-02-21T10:12:55;12.47;;;9.93;;
6131;SDS011;3097;42.692;23.278;2024-02-21T10:15:21;16.67;;;11.00;;
6131;SDS011;3097;42.692;23.278;2024-02-21T10:17:48;15.43;;;9.40;;
6131;SDS011;3097;42.692;23.278;2024-02-21T10:20:13;11.67;;;8.97;;
6131;SDS011;3097;42.692;23.278;2024-02-21T10:22:40;12.20;;;8.83;;
6131;SDS011;3097;42.692;23.278;2024-02-21T10:25:09;13.07;;;9.57;;
6131;SDS011;3097;42.692;23.278;2024-02-21T10:27:38;9.33;;;8.17;;
6131;SDS011;3097;42.692;23.278;2024-02-21T10:30:08;14.83;;;9.70;;
6131;SDS011;3097;42.692;23.278;2024-02-21T10:32:51;13.83;;;9.97;;
6131;SDS011;3097;42.692;23.278;2024-02-21T10:35:25;23.10;;;12.97;;
6131;SDS011;3097;42.692;23.278;2024-02-21T10:37:52;18.60;;;12.40;;
6131;SDS011;3097;42.692;23.278;2024-02-21T10:40:22;12.73;;;8.90;;
6131;SDS011;3097;42.692;23.278;2024-02-21T10:43:00;13.13;;;8.90;;
6131;SDS011;3097;42.692;23.278;2024-02-21T10:48:00;13.80;;;8.53;;
6131;SDS011;3097;42.692;23.278;2024-02-21T10:58:58;7.80;;;7.00;;
6131;SDS011;3097;42.692;23.278;2024-02-21T11:01:26;10.27;;;8.50;;
6131;SDS011;3097;42.692;23.278;2024-02-21T11:03:55;8.40;;;7.60;;
6131;SDS011;3097;42.692;23.278;2024-02-21T11:06:21;9.43;;;6.73;;
6131;SDS011;3097;42.692;23.278;2024-02-21T11:08:58;9.43;;;6.87;;
6131;SDS011;3097;42.692;23.278;2024-02-21T11:11:25;50.00;;;9.30;;
6131;SDS011;3097;42.692;23.278;2024-02-21T11:13:51;60.43;;;10.53;;
6131;SDS011;3097;42.692;23.278;2024-02-21T11:16:22;15.10;;;6.40;;
6131;SDS011;3097;42.692;23.278;2024-02-21T11:18:48;8.87;;;6.43;;
6131;SDS011;3097;42.692;23.278;2024-02-21T11:21:14;6.67;;;6.07;;
6131;SDS011;3097;42.692;23.278;2024-02-21T11:23:40;6.27;;;5.67;;
6131;SDS011;3097;42.692;23.278;2024-02-21T11:26:06;7.60;;;6.83;;
6131;SDS011;3097;42.692;23.278;2024-02-21T11:28:33;7.47;;;6.17;;
6131;SDS011;3097;42.692;23.278;2024-02-21T11:31:08;7.23;;;6.30;;
6131;SDS011;3097;42.692;23.278;2024-02-21T11:33:38;26.43;;;7.20;;
6131;SDS011;3097;42.692;23.278;2024-02-21T11:36:11;6.63;;;5.90;;
6131;SDS011;3097;42.692;23.278;2024-02-21T11:38:49;7.63;;;6.90;;
6131;SDS011;3097;42.692;23.278;2024-02-21T11:41:16;10.93;;;6.60;;
6131;SDS011;3097;42.692;23.278;2024-02-21T11:43:41;7.43;;;5.93;;
6131;SDS011;3097;42.692;23.278;2024-02-21T11:46:07;7.50;;;6.47;;
6131;SDS011;3097;42.692;23.278;2024-02-21T11:48:32;10.07;;;7.20;;
6131;SDS011;3097;42.692;23.278;2024-02-21T11:50:58;9.97;;;7.73;;
6131;SDS011;3097;42.692;23.278;2024-02-21T11:53:25;8.37;;;7.00;;
6131;SDS011;3097;42.692;23.278;2024-02-21T11:55:55;8.93;;;7.50;;
6131;SDS011;3097;42.692;23.278;2024-02-21T11:58:21;14.63;;;9.90;;
6131;SDS011;3097;42.692;23.278;2024-02-21T12:00:47;6.83;;;6.23;;
6131;SDS011;3097;42.692;23.278;2024-02-21T12:03:13;9.33;;;6.97;;
6131;SDS011;3097;42.692;23.278;2024-02-21T12:05:40;8.73;;;7.73;;
6131;SDS011;3097;42.692;23.278;2024-02-21T12:08:06;11.23;;;8.33;;
6131;SDS011;3097;42.692;23.278;2024-02-21T12:10:33;14.57;;;8.60;;
6131;SDS011;3097;42.692;23.278;2024-02-21T12:13:07;11.27;;;7.93;;
6131;SDS011;3097;42.692;23.278;2024-02-21T12:15:33;10.63;;;6.33;;
6131;SDS011;3097;42.692;23.278;2024-02-21T12:17:59;7.77;;;6.97;;
6131;SDS011;3097;42.692;23.278;2024-02-21T12:20:25;12.57;;;8.43;;
6131;SDS011;3097;42.692;23.278;2024-02-21T12:22:51;10.33;;;7.63;;
6131;SDS011;3097;42.692;23.278;2024-02-21T12:25:18;10.03;;;8.00;;
6131;SDS011;3097;42.692;23.278;2024-02-21T12:27:45;60.40;;;29.67;;
6131;SDS011;3097;42.692;23.278;2024-02-21T12:30:11;18.87;;;7.17;;
6131;SDS011;3097;42.692;23.278;2024-02-21T12:32:36;9.23;;;6.80;;
6131;SDS011;3097;42.692;23.278;2024-02-21T12:35:02;9.90;;;7.07;;
6131;SDS011;3097;42.692;23.278;2024-02-21T12:37:29;6.13;;;5.53;;
6131;SDS011;3097;42.692;23.278;2024-02-21T12:39:54;10.93;;;7.27;;
6131;SDS011;3097;42.692;23.278;2024-02-21T12:42:20;8.60;;;7.67;;
6131;SDS011;3097;42.692;23.278;2024-02-21T12:44:46;9.70;;;7.03;;
6131;SDS011;3097;42.692;23.278;2024-02-21T12:47:11;7.70;;;6.40;;
6131;SDS011;3097;42.692;23.278;2024-02-21T12:49:37;7.67;;;6.87;;
6131;SDS011;3097;42.692;23.278;2024-02-21T12:52:02;9.73;;;7.83;;
6131;SDS011;3097;42.692;23.278;2024-02-21T12:54:28;9.33;;;8.20;;
6131;SDS011;3097;42.692;23.278;2024-02-21T12:56:55;10.23;;;7.27;;
6131;SDS011;3097;42.692;23.278;2024-02-21T12:59:20;8.60;;;7.70;;
6131;SDS011;3097;42.692;23.278;2024-02-21T13:01:46;12.87;;;7.87;;
6131;SDS011;3097;42.692;23.278;2024-02-21T13:04:12;8.63;;;7.63;;
6131;SDS011;3097;42.692;23.278;2024-02-21T13:06:37;10.47;;;7.87;;
6131;SDS011;3097;42.692;23.278;2024-02-21T13:09:03;9.57;;;8.30;;
6131;SDS011;3097;42.692;23.278;2024-02-21T13:11:33;10.33;;;8.37;;
6131;SDS011;3097;42.692;23.278;2024-02-21T13:13:59;14.30;;;9.80;;
6131;SDS011;3097;42.692;23.278;2024-02-21T13:16:25;14.40;;;8.43;;
6131;SDS011;3097;42.692;23.278;2024-02-21T13:18:51;17.20;;;12.40;;
6131;SDS011;3097;42.692;23.278;2024-02-21T13:21:17;12.87;;;9.27;;
6131;SDS011;3097;42.692;23.278;2024-02-21T13:23:42;15.40;;;10.13;;
6131;SDS011;3097;42.692;23.278;2024-02-21T13:26:09;10.73;;;8.63;;
6131;SDS011;3097;42.692;23.278;2024-02-21T13:28:35;12.20;;;9.10;;
6131;SDS011;3097;42.692;23.278;2024-02-21T13:31:00;23.93;;;13.57;;
6131;SDS011;3097;42.692;23.278;2024-02-21T13:33:26;13.70;;;9.73;;
6131;SDS011;3097;42.692;23.278;2024-02-21T13:35:53;16.03;;;9.90;;
6131;SDS011;3097;42.692;23.278;2024-02-21T13:38:19;9.43;;;8.20;;
6131;SDS011;3097;42.692;23.278;2024-02-21T13:40:44;8.70;;;7.63;;
6131;SDS011;3097;42.692;23.278;2024-02-21T13:43:10;14.20;;;9.97;;
6131;SDS011;3097;42.692;23.278;2024-02-21T13:45:35;12.43;;;7.33;;
6131;SDS011;3097;42.692;23.278;2024-02-21T13:48:01;9.67;;;6.87;;
6131;SDS011;3097;42.692;23.278;2024-02-21T13:50:29;11.83;;;8.77;;
6131;SDS011;3097;42.692;23.278;2024-02-21T13:52:56;12.63;;;8.93;;
6131;SDS011;3097;42.692;23.278;2024-02-21T13:55:22;11.53;;;8.03;;
6131;SDS011;3097;42.692;23.278;2024-02-21T13:57:48;10.40;;;8.23;;
6131;SDS011;3097;42.692;23.278;2024-02-21T14:00:14;9.07;;;7.73;;
6131;SDS011;3097;42.692;23.278;2024-02-21T14:02:40;12.77;;;9.33;;
6131;SDS011;3097;42.692;23.278;2024-02-21T14:05:05;8.87;;;7.63;;
6131;SDS011;3097;42.692;23.278;2024-02-21T14:07:31;8.83;;;7.23;;
6131;SDS011;3097;42.692;23.278;2024-02-21T14:09:58;9.63;;;7.47;;
6131;SDS011;3097;42.692;23.278;2024-02-21T14:12:24;10.17;;;8.83;;
6131;SDS011;3097;42.692;23.278;2024-02-21T14:14:49;10.57;;;8.77;;
6131;SDS011;3097;42.692;23.278;2024-02-21T14:17:15;13.40;;;8.10;;
6131;SDS011;3097;42.692;23.278;2024-02-21T14:19:41;27.47;;;15.83;;
6131;SDS011;3097;42.692;23.278;2024-02-21T14:22:06;31.03;;;19.63;;
6131;SDS011;3097;42.692;23.278;2024-02-21T14:24:32;17.37;;;12.27;;
6131;SDS011;3097;42.692;23.278;2024-02-21T14:26:57;10.33;;;8.37;;
6131;SDS011;3097;42.692;23.278;2024-02-21T14:29:24;14.77;;;9.77;;
6131;SDS011;3097;42.692;23.278;2024-02-21T14:31:50;14.53;;;8.03;;
6131;SDS011;3097;42.692;23.278;2024-02-21T14:34:15;10.83;;;8.53;;
6131;SDS011;3097;42.692;23.278;2024-02-21T14:36:41;16.30;;;9.63;;
6131;SDS011;3097;42.692;23.278;2024-02-21T14:39:07;11.63;;;8.23;;
6131;SDS011;3097;42.692;23.278;2024-02-21T14:41:32;13.80;;;8.93;;
6131;SDS011;3097;42.692;23.278;2024-02-21T14:44:00;18.43;;;9.90;;
6131;SDS011;3097;42.692;23.278;2024-02-21T14:46:26;13.03;;;8.63;;
6131;SDS011;3097;42.692;23.278;2024-02-21T14:48:55;15.63;;;9.80;;
6131;SDS011;3097;42.692;23.278;2024-02-21T14:51:21;13.50;;;9.90;;
6131;SDS011;3097;42.692;23.278;2024-02-21T14:53:47;12.87;;;9.37;;